sensor_id;sensor_type;location;lat;lon;timestamp;pressure;altitude;pressure_sealevel;temperature;humidity
42247;BME280;27913;42.722;23.268;2023-08-01T00:04:59;94658.03;;;20.83;71.57
42247;BME280;27913;42.722;23.268;2023-08-01T00:07:27;94677.84;;;20.87;71.69
42247;BME280;27913;42.722;23.268;2023-08-01T00:09:52;94706.78;;;21.06;72.19
42247;BME280;27913;42.722;23.268;2023-08-01T00:12:18;94630.97;;;20.63;71.74
42247;BME280;27913;42.722;23.268;2023-08-01T00:14:43;94683.16;;;20.82;72.24
42247;BME280;27913;42.722;23.268;2023-08-01T00:17:09;94657.56;;;20.43;73.29
42247;BME280;27913;42.722;23.268;2023-08-01T00:19:35;94707.91;;;20.67;73.72
42247;BME280;27913;42.722;23.268;2023-08-01T00:22:01;94583.47;;;19.79;74.28
42247;BME280;27913;42.722;23.268;2023-08-01T00:24:26;94632.41;;;19.95;74.74
42247;BME280;27913;42.722;23.268;2023-08-01T00:26:52;94704.09;;;20.52;74.67
42247;BME280;27913;42.722;23.268;2023-08-01T00:29:20;94695.25;;;20.46;74.52
42247;BME280;27913;42.722;23.268;2023-08-01T00:31:46;94676.72;;;20.29;75.04
42247;BME280;27913;42.722;23.268;2023-08-01T00:34:11;94654.41;;;20.08;75.64
42247;BME280;27913;42.722;23.268;2023-08-01T00:36:37;94627.56;;;19.59;76.50
42247;BME280;27913;42.722;23.268;2023-08-01T00:39:02;94709.31;;;20.03;77.08
42247;BME280;27913;42.722;23.268;2023-08-01T00:41:28;94700.59;;;20.08;76.96
42247;BME280;27913;42.722;23.268;2023-08-01T00:43:53;94707.53;;;20.09;77.06
42247;BME280;27913;42.722;23.268;2023-08-01T00:46:19;94670.72;;;19.84;77.20
42247;BME280;27913;42.722;23.268;2023-08-01T00:48:45;94699.41;;;19.99;77.37
42247;BME280;27913;42.722;23.268;2023-08-01T00:51:11;94620.69;;;19.63;76.42
42247;BME280;27913;42.722;23.268;2023-08-01T00:53:37;94642.19;;;19.84;76.37
42247;BME280;27913;42.722;23.268;2023-08-01T00:56:03;94669.59;;;20.07;75.37
42247;BME280;27913;42.722;23.268;2023-08-01T00:58:29;94631.91;;;20.03;74.75
42247;BME280;27913;42.722;23.268;2023-08-01T01:00:54;94665.50;;;20.32;74.27
42247;BME280;27913;42.722;23.268;2023-08-01T01:03:22;94585.41;;;19.89;73.42
42247;BME280;27913;42.722;23.268;2023-08-01T01:06:14;94683.53;;;20.58;73.22
42247;BME280;27913;42.722;23.268;2023-08-01T01:08:43;94695.84;;;20.59;72.65
42247;BME280;27913;42.722;23.268;2023-08-01T01:11:08;94634.00;;;20.29;72.06
42247;BME280;27913;42.722;23.268;2023-08-01T01:13:34;94659.19;;;20.49;72.05
42247;BME280;27913;42.722;23.268;2023-08-01T01:15:59;94680.44;;;20.71;71.66
42247;BME280;27913;42.722;23.268;2023-08-01T01:18:25;94649.06;;;20.51;71.01
42247;BME280;27913;42.722;23.268;2023-08-01T01:20:50;94624.69;;;20.37;70.86
42247;BME280;27913;42.722;23.268;2023-08-01T01:23:16;94576.91;;;19.97;70.68
42247;BME280;27913;42.722;23.268;2023-08-01T01:25:43;94583.09;;;20.03;71.34
42247;BME280;27913;42.722;23.268;2023-08-01T01:28:11;94639.41;;;20.39;71.04
42247;BME280;27913;42.722;23.268;2023-08-01T01:30:37;94655.19;;;20.46;71.02
42247;BME280;27913;42.722;23.268;2023-08-01T01:33:03;94635.09;;;20.38;71.14
42247;BME280;27913;42.722;23.268;2023-08-01T01:35:32;94619.53;;;20.25;71.05
42247;BME280;27913;42.722;23.268;2023-08-01T01:37:58;94648.22;;;20.45;70.75
42247;BME280;27913;42.722;23.268;2023-08-01T01:40:24;94624.41;;;20.33;70.52
42247;BME280;27913;42.722;23.268;2023-08-01T01:42:49;94661.41;;;20.57;70.39
42247;BME280;27913;42.722;23.268;2023-08-01T01:45:15;94652.00;;;20.49;70.14
42247;BME280;27913;42.722;23.268;2023-08-01T01:47:40;94623.81;;;20.26;70.17
42247;BME280;27913;42.722;23.268;2023-08-01T01:50:06;94640.44;;;20.38;69.95
42247;BME280;27913;42.722;23.268;2023-08-01T01:52:31;94633.75;;;20.31;70.04
42247;BME280;27913;42.722;23.268;2023-08-01T01:54:58;94650.19;;;20.17;70.77
42247;BME280;27913;42.722;23.268;2023-08-01T01:57:24;94655.84;;;19.93;71.40
42247;BME280;27913;42.722;23.268;2023-08-01T01:59:49;94665.88;;;19.80;72.37
42247;BME280;27913;42.722;23.268;2023-08-01T02:02:14;94675.09;;;19.62;73.49
42247;BME280;27913;42.722;23.268;2023-08-01T02:04:40;94688.53;;;19.50;74.75
42247;BME280;27913;42.722;23.268;2023-08-01T02:07:05;94674.13;;;19.46;75.49
42247;BME280;27913;42.722;23.268;2023-08-01T02:09:31;94587.31;;;18.78;75.50
42247;BME280;27913;42.722;23.268;2023-08-01T02:11:56;94662.69;;;19.23;75.80
42247;BME280;27913;42.722;23.268;2023-08-01T02:14:22;94632.56;;;19.00;76.30
42247;BME280;27913;42.722;23.268;2023-08-01T02:16:47;94673.03;;;19.19;77.01
42247;BME280;27913;42.722;23.268;2023-08-01T02:19:13;94677.91;;;19.05;77.54
42247;BME280;27913;42.722;23.268;2023-08-01T02:21:38;94588.84;;;18.29;79.00
42247;BME280;27913;42.722;23.268;2023-08-01T02:24:04;94613.94;;;18.16;80.77
42247;BME280;27913;42.722;23.268;2023-08-01T02:26:30;94678.31;;;18.52;81.28
42247;BME280;27913;42.722;23.268;2023-08-01T02:28:56;94625.97;;;18.18;81.67
42247;BME280;27913;42.722;23.268;2023-08-01T02:31:21;94623.31;;;18.18;81.81
42247;BME280;27913;42.722;23.268;2023-08-01T02:33:47;94643.84;;;18.23;81.86
42247;BME280;27913;42.722;23.268;2023-08-01T02:36:12;94668.75;;;18.34;82.19
42247;BME280;27913;42.722;23.268;2023-08-01T02:38:38;94634.81;;;18.24;82.05
42247;BME280;27913;42.722;23.268;2023-08-01T02:41:03;94668.47;;;18.53;82.01
42247;BME280;27913;42.722;23.268;2023-08-01T02:43:29;94665.56;;;18.54;81.66
42247;BME280;27913;42.722;23.268;2023-08-01T02:45:54;94622.34;;;18.47;81.13
42247;BME280;27913;42.722;23.268;2023-08-01T02:48:20;94611.28;;;18.55;79.51
42247;BME280;27913;42.722;23.268;2023-08-01T02:50:45;94620.56;;;18.75;78.90
42247;BME280;27913;42.722;23.268;2023-08-01T02:53:11;94668.22;;;19.16;78.24
42247;BME280;27913;42.722;23.268;2023-08-01T02:55:36;94674.22;;;19.29;77.93
42247;BME280;27913;42.722;23.268;2023-08-01T02:58:02;94653.16;;;19.27;77.51
42247;BME280;27913;42.722;23.268;2023-08-01T03:00:27;94671.72;;;19.45;76.58
42247;BME280;27913;42.722;23.268;2023-08-01T03:02:53;94618.88;;;19.14;75.88
42247;BME280;27913;42.722;23.268;2023-08-01T03:05:19;94677.41;;;19.53;74.83
42247;BME280;27913;42.722;23.268;2023-08-01T03:07:44;94649.41;;;19.28;75.39
42247;BME280;27913;42.722;23.268;2023-08-01T03:10:10;94652.78;;;19.18;75.75
42247;BME280;27913;42.722;23.268;2023-08-01T03:12:36;94567.81;;;18.50;76.35
42247;BME280;27913;42.722;23.268;2023-08-01T03:15:02;94665.91;;;19.03;76.80
42247;BME280;27913;42.722;23.268;2023-08-01T03:17:28;94664.75;;;19.16;76.54
42247;BME280;27913;42.722;23.268;2023-08-01T03:19:53;94677.09;;;19.22;76.13
42247;BME280;27913;42.722;23.268;2023-08-01T03:22:19;94614.00;;;18.83;75.86
42247;BME280;27913;42.722;23.268;2023-08-01T03:24:44;94683.38;;;18.93;76.75
42247;BME280;27913;42.722;23.268;2023-08-01T03:27:10;94656.78;;;18.54;77.54
42247;BME280;27913;42.722;23.268;2023-08-01T03:29:35;94683.06;;;18.50;78.31
42247;BME280;27913;42.722;23.268;2023-08-01T03:32:01;94688.84;;;18.25;79.36
42247;BME280;27913;42.722;23.268;2023-08-01T03:34:26;94686.44;;;18.23;80.16
42247;BME280;27913;42.722;23.268;2023-08-01T03:36:52;94689.41;;;18.09;81.55
42247;BME280;27913;42.722;23.268;2023-08-01T03:39:18;94668.59;;;17.89;82.49
42247;BME280;27913;42.722;23.268;2023-08-01T03:41:43;94647.06;;;17.56;83.03
42247;BME280;27913;42.722;23.268;2023-08-01T03:44:08;94677.16;;;17.45;84.24
42247;BME280;27913;42.722;23.268;2023-08-01T03:46:34;94586.88;;;16.62;85.60
42247;BME280;27913;42.722;23.268;2023-08-01T03:48:59;94671.50;;;17.12;86.31
42247;BME280;27913;42.722;23.268;2023-08-01T03:51:25;94639.84;;;16.81;86.79
42247;BME280;27913;42.722;23.268;2023-08-01T03:53:50;94694.94;;;17.15;87.47
42247;BME280;27913;42.722;23.268;2023-08-01T03:56:16;94618.19;;;16.60;87.54
42247;BME280;27913;42.722;23.268;2023-08-01T03:58:41;94679.59;;;17.05;87.81
42247;BME280;27913;42.722;23.268;2023-08-01T04:01:06;94681.59;;;16.86;88.31
42247;BME280;27913;42.722;23.268;2023-08-01T04:03:32;94662.47;;;16.72;88.87
42247;BME280;27913;42.722;23.268;2023-08-01T04:05:58;94698.38;;;17.27;88.60
42247;BME280;27913;42.722;23.268;2023-08-01T04:08:23;94677.88;;;17.40;87.43
42247;BME280;27913;42.722;23.268;2023-08-01T04:10:49;94665.50;;;17.63;86.69
42247;BME280;27913;42.722;23.268;2023-08-01T04:13:15;94691.09;;;17.98;85.85
42247;BME280;27913;42.722;23.268;2023-08-01T04:15:41;94615.88;;;17.69;84.66
42247;BME280;27913;42.722;23.268;2023-08-01T04:18:06;94660.59;;;18.06;84.38
42247;BME280;27913;42.722;23.268;2023-08-01T04:20:32;94638.13;;;17.80;84.05
42247;BME280;27913;42.722;23.268;2023-08-01T04:22:57;94708.50;;;18.06;84.39
42247;BME280;27913;42.722;23.268;2023-08-01T04:25:22;94707.03;;;17.98;85.28
42247;BME280;27913;42.722;23.268;2023-08-01T04:27:50;94670.25;;;17.61;85.92
42247;BME280;27913;42.722;23.268;2023-08-01T04:30:15;94700.91;;;17.81;86.10
42247;BME280;27913;42.722;23.268;2023-08-01T04:32:41;94678.94;;;17.56;86.08
42247;BME280;27913;42.722;23.268;2023-08-01T04:35:06;94691.69;;;17.71;86.12
42247;BME280;27913;42.722;23.268;2023-08-01T04:37:32;94715.09;;;17.86;86.14
42247;BME280;27913;42.722;23.268;2023-08-01T04:39:57;94701.88;;;18.09;84.36
42247;BME280;27913;42.722;23.268;2023-08-01T04:42:23;94649.56;;;17.97;82.80
42247;BME280;27913;42.722;23.268;2023-08-01T04:44:48;94695.28;;;18.46;82.37
42247;BME280;27913;42.722;23.268;2023-08-01T04:47:14;94679.72;;;18.38;81.50
42247;BME280;27913;42.722;23.268;2023-08-01T04:49:40;94676.28;;;18.20;81.04
42247;BME280;27913;42.722;23.268;2023-08-01T04:52:05;94697.97;;;18.29;81.26
42247;BME280;27913;42.722;23.268;2023-08-01T04:54:31;94679.91;;;18.14;81.52
42247;BME280;27913;42.722;23.268;2023-08-01T04:56:56;94694.84;;;18.15;81.48
42247;BME280;27913;42.722;23.268;2023-08-01T04:59:22;94677.72;;;17.93;82.30
42247;BME280;27913;42.722;23.268;2023-08-01T05:01:47;94691.50;;;18.07;82.10
42247;BME280;27913;42.722;23.268;2023-08-01T05:04:13;94616.22;;;17.72;81.70
42247;BME280;27913;42.722;23.268;2023-08-01T05:06:38;94688.69;;;18.31;81.56
42247;BME280;27913;42.722;23.268;2023-08-01T05:09:05;94693.03;;;18.38;81.10
42247;BME280;27913;42.722;23.268;2023-08-01T05:11:32;94694.69;;;18.61;79.90
42247;BME280;27913;42.722;23.268;2023-08-01T05:13:57;94692.91;;;18.67;80.22
42247;BME280;27913;42.722;23.268;2023-08-01T05:16:23;94696.31;;;18.85;78.61
42247;BME280;27913;42.722;23.268;2023-08-01T05:18:48;94698.50;;;18.88;78.55
42247;BME280;27913;42.722;23.268;2023-08-01T05:21:13;94637.75;;;18.45;78.35
42247;BME280;27913;42.722;23.268;2023-08-01T05:23:39;94683.56;;;18.87;77.41
42247;BME280;27913;42.722;23.268;2023-08-01T05:26:04;94701.81;;;19.17;77.55
42247;BME280;27913;42.722;23.268;2023-08-01T05:28:30;94680.22;;;19.19;76.83
42247;BME280;27913;42.722;23.268;2023-08-01T05:30:55;94632.00;;;18.98;76.29
42247;BME280;27913;42.722;23.268;2023-08-01T05:33:21;94707.91;;;19.68;75.46
42247;BME280;27913;42.722;23.268;2023-08-01T05:35:48;94706.97;;;19.79;74.97
42247;BME280;27913;42.722;23.268;2023-08-01T05:38:13;94686.63;;;19.73;74.04
42247;BME280;27913;42.722;23.268;2023-08-01T05:40:39;94656.81;;;19.49;74.27
42247;BME280;27913;42.722;23.268;2023-08-01T05:43:05;94693.00;;;19.67;73.89
42247;BME280;27913;42.722;23.268;2023-08-01T05:45:35;94605.81;;;19.12;73.99
42247;BME280;27913;42.722;23.268;2023-08-01T05:48:01;94649.16;;;19.58;73.24
42247;BME280;27913;42.722;23.268;2023-08-01T05:50:27;94694.88;;;19.99;72.18
42247;BME280;27913;42.722;23.268;2023-08-01T05:52:52;94686.94;;;20.05;71.04
42247;BME280;27913;42.722;23.268;2023-08-01T05:55:18;94692.09;;;20.17;69.46
42247;BME280;27913;42.722;23.268;2023-08-01T05:57:43;94591.00;;;19.54;68.02
42247;BME280;27913;42.722;23.268;2023-08-01T06:00:10;94613.63;;;19.79;68.17
42247;BME280;27913;42.722;23.268;2023-08-01T06:02:36;94679.59;;;20.22;68.89
42247;BME280;27913;42.722;23.268;2023-08-01T06:05:01;94655.31;;;20.24;68.21
42247;BME280;27913;42.722;23.268;2023-08-01T06:07:26;94683.50;;;20.52;68.37
42247;BME280;27913;42.722;23.268;2023-08-01T06:09:52;94647.94;;;20.36;67.77
42247;BME280;27913;42.722;23.268;2023-08-01T06:12:18;94602.69;;;20.19;66.11
42247;BME280;27913;42.722;23.268;2023-08-01T06:14:44;94685.00;;;20.76;66.48
42247;BME280;27913;42.722;23.268;2023-08-01T06:17:09;94675.81;;;20.61;65.99
42247;BME280;27913;42.722;23.268;2023-08-01T06:19:35;94663.84;;;20.26;67.24
42247;BME280;27913;42.722;23.268;2023-08-01T06:22:00;94660.84;;;20.17;67.93
42247;BME280;27913;42.722;23.268;2023-08-01T06:24:26;94647.22;;;20.08;67.04
42247;BME280;27913;42.722;23.268;2023-08-01T06:26:51;94661.91;;;20.11;67.20
42247;BME280;27913;42.722;23.268;2023-08-01T06:29:17;94686.22;;;20.14;66.67
42247;BME280;27913;42.722;23.268;2023-08-01T06:31:42;94681.16;;;20.18;67.23
42247;BME280;27913;42.722;23.268;2023-08-01T06:34:08;94673.00;;;20.35;66.43
42247;BME280;27913;42.722;23.268;2023-08-01T06:36:33;94674.72;;;20.52;65.77
42247;BME280;27913;42.722;23.268;2023-08-01T06:39:00;94673.44;;;20.65;66.08
42247;BME280;27913;42.722;23.268;2023-08-01T06:41:26;94667.56;;;20.68;66.24
42247;BME280;27913;42.722;23.268;2023-08-01T06:43:51;94614.31;;;20.46;65.63
42247;BME280;27913;42.722;23.268;2023-08-01T06:46:16;94648.38;;;20.71;65.13
42247;BME280;27913;42.722;23.268;2023-08-01T06:48:42;94673.09;;;20.94;64.24
42247;BME280;27913;42.722;23.268;2023-08-01T06:51:07;94644.38;;;20.74;64.92
42247;BME280;27913;42.722;23.268;2023-08-01T06:53:33;94672.22;;;20.83;64.85
42247;BME280;27913;42.722;23.268;2023-08-01T06:55:58;94672.91;;;20.68;66.09
42247;BME280;27913;42.722;23.268;2023-08-01T06:58:24;94597.16;;;20.31;66.95
42247;BME280;27913;42.722;23.268;2023-08-01T07:00:49;94664.19;;;20.83;66.78
42247;BME280;27913;42.722;23.268;2023-08-01T07:03:14;94671.47;;;20.98;66.73
42247;BME280;27913;42.722;23.268;2023-08-01T07:05:40;94631.31;;;20.83;65.94
42247;BME280;27913;42.722;23.268;2023-08-01T07:08:05;94589.31;;;20.68;66.36
42247;BME280;27913;42.722;23.268;2023-08-01T07:10:34;94598.47;;;20.93;64.85
42247;BME280;27913;42.722;23.268;2023-08-01T07:12:59;94661.44;;;21.32;64.86
42247;BME280;27913;42.722;23.268;2023-08-01T07:17:39;94566.38;;;20.82;64.03
42247;BME280;27913;42.722;23.268;2023-08-01T07:20:04;94584.38;;;21.03;63.47
42247;BME280;27913;42.722;23.268;2023-08-01T07:22:30;94582.53;;;21.03;63.19
42247;BME280;27913;42.722;23.268;2023-08-01T07:24:56;94605.00;;;21.23;64.94
42247;BME280;27913;42.722;23.268;2023-08-01T07:27:21;94611.41;;;21.11;64.87
42247;BME280;27913;42.722;23.268;2023-08-01T07:29:47;94539.88;;;20.65;65.54
42247;BME280;27913;42.722;23.268;2023-08-01T07:32:12;94556.78;;;20.92;65.47
42247;BME280;27913;42.722;23.268;2023-08-01T07:34:38;94592.47;;;21.39;65.18
42247;BME280;27913;42.722;23.268;2023-08-01T07:37:03;94600.22;;;21.62;64.18
42247;BME280;27913;42.722;23.268;2023-08-01T07:39:59;94529.09;;;21.24;63.91
42247;BME280;27913;42.722;23.268;2023-08-01T07:42:44;94577.78;;;21.57;63.69
42247;BME280;27913;42.722;23.268;2023-08-01T07:45:11;94582.03;;;21.53;63.25
42247;BME280;27913;42.722;23.268;2023-08-01T07:47:47;94575.88;;;21.53;63.68
42247;BME280;27913;42.722;23.268;2023-08-01T07:50:12;94592.47;;;21.76;63.35
42247;BME280;27913;42.722;23.268;2023-08-01T07:52:37;94653.50;;;22.20;63.32
42247;BME280;27913;42.722;23.268;2023-08-01T07:55:06;94643.31;;;22.38;62.05
42247;BME280;27913;42.722;23.268;2023-08-01T07:57:42;94573.69;;;22.17;61.75
42247;BME280;27913;42.722;23.268;2023-08-01T08:00:08;94614.59;;;22.54;61.30
42247;BME280;27913;42.722;23.268;2023-08-01T08:02:34;94640.81;;;22.73;60.97
42247;BME280;27913;42.722;23.268;2023-08-01T08:05:00;94565.66;;;22.33;60.88
42247;BME280;27913;42.722;23.268;2023-08-01T08:07:25;94592.63;;;22.58;60.57
42247;BME280;27913;42.722;23.268;2023-08-01T08:09:51;94624.66;;;22.94;61.07
42247;BME280;27913;42.722;23.268;2023-08-01T08:12:16;94623.81;;;22.99;60.62
42247;BME280;27913;42.722;23.268;2023-08-01T08:14:41;94598.66;;;22.95;60.43
42247;BME280;27913;42.722;23.268;2023-08-01T08:17:07;94551.88;;;22.71;60.28
42247;BME280;27913;42.722;23.268;2023-08-01T08:19:33;94600.19;;;23.11;58.59
42247;BME280;27913;42.722;23.268;2023-08-01T08:21:58;94624.75;;;23.29;58.91
42247;BME280;27913;42.722;23.268;2023-08-01T08:24:23;94623.38;;;23.42;58.77
42247;BME280;27913;42.722;23.268;2023-08-01T08:26:49;94596.09;;;23.24;57.61
42247;BME280;27913;42.722;23.268;2023-08-01T08:29:15;94623.66;;;23.30;57.63
42247;BME280;27913;42.722;23.268;2023-08-01T08:31:41;94619.63;;;23.33;57.85
42247;BME280;27913;42.722;23.268;2023-08-01T08:34:06;94605.41;;;23.32;57.57
42247;BME280;27913;42.722;23.268;2023-08-01T08:36:31;94557.88;;;23.03;57.83
42247;BME280;27913;42.722;23.268;2023-08-01T08:38:57;94607.53;;;23.35;57.49
42247;BME280;27913;42.722;23.268;2023-08-01T08:41:26;94478.22;;;22.63;57.76
42247;BME280;27913;42.722;23.268;2023-08-01T08:43:56;94598.91;;;23.49;57.69
42247;BME280;27913;42.722;23.268;2023-08-01T08:46:25;94571.56;;;23.47;58.46
42247;BME280;27913;42.722;23.268;2023-08-01T08:48:54;94571.66;;;23.66;58.13
42247;BME280;27913;42.722;23.268;2023-08-01T08:51:21;94590.53;;;23.91;56.63
42247;BME280;27913;42.722;23.268;2023-08-01T08:53:47;94581.72;;;23.85;56.28
42247;BME280;27913;42.722;23.268;2023-08-01T08:56:17;94578.44;;;23.88;56.50
42247;BME280;27913;42.722;23.268;2023-08-01T08:58:44;94556.97;;;23.88;55.90
42247;BME280;27913;42.722;23.268;2023-08-01T09:01:11;94537.94;;;23.84;55.93
42247;BME280;27913;42.722;23.268;2023-08-01T09:03:36;94543.91;;;24.06;55.17
42247;BME280;27913;42.722;23.268;2023-08-01T09:06:29;94521.44;;;24.01;54.75
42247;BME280;27913;42.722;23.268;2023-08-01T09:11:25;94578.16;;;24.24;54.09
42247;BME280;27913;42.722;23.268;2023-08-01T09:13:51;94547.53;;;23.96;54.41
42247;BME280;27913;42.722;23.268;2023-08-01T09:16:16;94566.44;;;24.10;53.98
42247;BME280;27913;42.722;23.268;2023-08-01T09:18:52;94545.59;;;24.01;53.96
42247;BME280;27913;42.722;23.268;2023-08-01T09:21:19;94524.13;;;24.01;54.43
42247;BME280;27913;42.722;23.268;2023-08-01T09:23:45;94557.56;;;24.39;53.54
42247;BME280;27913;42.722;23.268;2023-08-01T09:26:19;94503.25;;;24.23;53.66
42247;BME280;27913;42.722;23.268;2023-08-01T09:28:58;94507.25;;;24.45;53.92
42247;BME280;27913;42.722;23.268;2023-08-01T09:31:30;94555.88;;;24.92;53.06
42247;BME280;27913;42.722;23.268;2023-08-01T09:33:56;94550.94;;;25.00;51.38
42247;BME280;27913;42.722;23.268;2023-08-01T09:36:22;94519.31;;;24.91;51.56
42247;BME280;27913;42.722;23.268;2023-08-01T09:38:57;94543.84;;;25.09;50.76
42247;BME280;27913;42.722;23.268;2023-08-01T09:41:25;94509.28;;;24.97;50.91
42247;BME280;27913;42.722;23.268;2023-08-01T09:43:51;94537.94;;;25.26;50.40
42247;BME280;27913;42.722;23.268;2023-08-01T09:46:19;94541.41;;;25.27;50.40
42247;BME280;27913;42.722;23.268;2023-08-01T09:48:44;94539.66;;;25.17;50.96
42247;BME280;27913;42.722;23.268;2023-08-01T09:51:12;94507.56;;;25.06;51.14
42247;BME280;27913;42.722;23.268;2023-08-01T09:53:56;94519.41;;;25.25;50.46
42247;BME280;27913;42.722;23.268;2023-08-01T09:56:24;94526.94;;;25.42;50.10
42247;BME280;27913;42.722;23.268;2023-08-01T09:58:52;94526.03;;;25.47;49.76
42247;BME280;27913;42.722;23.268;2023-08-01T10:01:19;94522.75;;;25.50;50.06
42247;BME280;27913;42.722;23.268;2023-08-01T10:03:49;94476.75;;;25.32;49.84
42247;BME280;27913;42.722;23.268;2023-08-01T10:06:20;94494.03;;;25.45;48.93
42247;BME280;27913;42.722;23.268;2023-08-01T10:08:47;94512.91;;;25.59;48.49
42247;BME280;27913;42.722;23.268;2023-08-01T10:11:21;94509.22;;;25.55;48.00
42247;BME280;27913;42.722;23.268;2023-08-01T10:13:47;94435.06;;;25.15;47.61
42247;BME280;27913;42.722;23.268;2023-08-01T10:16:14;94505.06;;;25.63;48.22
42247;BME280;27913;42.722;23.268;2023-08-01T10:18:40;94469.53;;;25.47;47.69
42247;BME280;27913;42.722;23.268;2023-08-01T10:21:07;94471.31;;;25.51;47.87
42247;BME280;27913;42.722;23.268;2023-08-01T10:23:36;94406.66;;;25.09;47.70
42247;BME280;27913;42.722;23.268;2023-08-01T10:26:04;94463.97;;;25.57;48.45
42247;BME280;27913;42.722;23.268;2023-08-01T10:28:34;94481.19;;;25.75;48.24
42247;BME280;27913;42.722;23.268;2023-08-01T10:31:11;94433.56;;;25.56;48.23
42247;BME280;27913;42.722;23.268;2023-08-01T10:33:41;94405.84;;;25.56;47.65
42247;BME280;27913;42.722;23.268;2023-08-01T10:36:21;94475.22;;;26.21;47.30
42247;BME280;27913;42.722;23.268;2023-08-01T10:38:56;94441.22;;;26.11;45.34
42247;BME280;27913;42.722;23.268;2023-08-01T10:41:27;94434.41;;;26.13;45.16
42247;BME280;27913;42.722;23.268;2023-08-01T10:44:09;94470.94;;;26.48;44.79
42247;BME280;27913;42.722;23.268;2023-08-01T10:46:49;94435.31;;;26.23;44.71
42247;BME280;27913;42.722;23.268;2023-08-01T10:49:16;94464.34;;;26.54;44.56
42247;BME280;27913;42.722;23.268;2023-08-01T10:51:43;94458.44;;;26.52;43.77
42247;BME280;27913;42.722;23.268;2023-08-01T10:54:19;94437.50;;;26.35;43.43
42247;BME280;27913;42.722;23.268;2023-08-01T10:56:50;94459.06;;;26.49;42.42
42247;BME280;27913;42.722;23.268;2023-08-01T10:59:16;94450.34;;;26.52;41.89
42247;BME280;27913;42.722;23.268;2023-08-01T11:01:47;94447.97;;;26.50;42.20
42247;BME280;27913;42.722;23.268;2023-08-01T11:04:17;94448.25;;;26.63;42.62
42247;BME280;27913;42.722;23.268;2023-08-01T11:06:48;94419.50;;;26.58;42.03
42247;BME280;27913;42.722;23.268;2023-08-01T11:09:29;94397.75;;;26.55;42.53
42247;BME280;27913;42.722;23.268;2023-08-01T11:11:57;94398.06;;;26.53;42.13
42247;BME280;27913;42.722;23.268;2023-08-01T11:14:24;94426.00;;;26.80;42.34
42247;BME280;27913;42.722;23.268;2023-08-01T11:16:50;94388.31;;;26.66;42.30
42247;BME280;27913;42.722;23.268;2023-08-01T11:19:24;94423.53;;;27.07;41.80
42247;BME280;27913;42.722;23.268;2023-08-01T11:21:50;94367.06;;;26.87;42.03
42247;BME280;27913;42.722;23.268;2023-08-01T11:24:18;94420.84;;;27.30;39.27
42247;BME280;27913;42.722;23.268;2023-08-01T11:26:46;94421.88;;;27.43;37.49
42247;BME280;27913;42.722;23.268;2023-08-01T11:29:12;94381.63;;;27.32;35.38
42247;BME280;27913;42.722;23.268;2023-08-01T11:31:39;94403.22;;;27.64;39.26
42247;BME280;27913;42.722;23.268;2023-08-01T11:34:04;94406.47;;;27.75;39.13
42247;BME280;27913;42.722;23.268;2023-08-01T11:36:30;94385.34;;;27.77;39.13
42247;BME280;27913;42.722;23.268;2023-08-01T11:38:58;94360.06;;;27.73;33.75
42247;BME280;27913;42.722;23.268;2023-08-01T11:41:25;94386.53;;;28.03;30.47
42247;BME280;27913;42.722;23.268;2023-08-01T11:43:52;94388.16;;;28.13;29.70
42247;BME280;27913;42.722;23.268;2023-08-01T11:46:20;94384.38;;;28.31;30.11
42247;BME280;27913;42.722;23.268;2023-08-01T11:48:46;94388.38;;;28.52;30.25
42247;BME280;27913;42.722;23.268;2023-08-01T11:51:12;94386.00;;;28.68;30.49
42247;BME280;27913;42.722;23.268;2023-08-01T11:53:38;94386.47;;;28.79;30.64
42247;BME280;27913;42.722;23.268;2023-08-01T11:56:07;94370.25;;;28.88;30.87
42247;BME280;27913;42.722;23.268;2023-08-01T11:58:40;94376.94;;;28.99;30.93
42247;BME280;27913;42.722;23.268;2023-08-01T12:01:11;94363.69;;;29.15;30.85
42247;BME280;27913;42.722;23.268;2023-08-01T12:03:43;94370.19;;;29.32;30.15
42247;BME280;27913;42.722;23.268;2023-08-01T12:06:09;94341.09;;;29.20;27.89
42247;BME280;27913;42.722;23.268;2023-08-01T12:08:37;94334.69;;;29.25;28.23
42247;BME280;27913;42.722;23.268;2023-08-01T12:11:03;94317.31;;;29.26;28.79
42247;BME280;27913;42.722;23.268;2023-08-01T12:13:29;94363.69;;;29.72;26.33
42247;BME280;27913;42.722;23.268;2023-08-01T12:15:56;94352.34;;;29.79;27.22
42247;BME280;27913;42.722;23.268;2023-08-01T12:18:24;94336.91;;;29.80;27.20
42247;BME280;27913;42.722;23.268;2023-08-01T12:20:50;94327.50;;;29.77;26.29
42247;BME280;27913;42.722;23.268;2023-08-01T12:23:15;94324.25;;;29.84;27.19
42247;BME280;27913;42.722;23.268;2023-08-01T12:25:41;94326.53;;;30.03;27.74
42247;BME280;27913;42.722;23.268;2023-08-01T12:28:06;94330.72;;;30.00;26.30
42247;BME280;27913;42.722;23.268;2023-08-01T12:30:32;94347.72;;;30.10;27.23
42247;BME280;27913;42.722;23.268;2023-08-01T12:32:57;94257.00;;;29.56;26.40
42247;BME280;27913;42.722;23.268;2023-08-01T12:35:23;94342.22;;;30.19;26.74
42247;BME280;27913;42.722;23.268;2023-08-01T12:37:49;94345.50;;;30.33;25.98
42247;BME280;27913;42.722;23.268;2023-08-01T12:40:15;94307.31;;;30.17;28.42
42247;BME280;27913;42.722;23.268;2023-08-01T12:42:41;94341.41;;;30.48;26.60
42247;BME280;27913;42.722;23.268;2023-08-01T12:45:06;94334.66;;;30.55;25.47
42247;BME280;27913;42.722;23.268;2023-08-01T12:47:32;94318.38;;;30.55;26.66
42247;BME280;27913;42.722;23.268;2023-08-01T12:49:57;94317.97;;;30.65;25.77
42247;BME280;27913;42.722;23.268;2023-08-01T12:52:24;94303.19;;;30.75;26.98
42247;BME280;27913;42.722;23.268;2023-08-01T12:54:50;94329.44;;;31.05;25.94
42247;BME280;27913;42.722;23.268;2023-08-01T12:57:15;94315.38;;;30.90;25.18